

Wyoming Mesonet
Water Resources Data System and State Climate Office
SEO WACNet, UW USACE UMRB, USDA-ARS, BLM
| Wind | Soil | |||||||||||||||||||
| Temp | Precip | Speed | Dir | Gust | Dir | Humidity | Pressure | Solar | Snow | Temperature (Deg F) | Moisture (%) | |||||||||
| Date Time (MST) | (F) | (in) | (mph) | (deg) | (mph) | (deg) | (%) | (Mbars) | (w/m^2) | (in) | 5cm | 10cm | 20cm | 50cm | 1m | 5cm | 10cm | 20cm | 50cm | 1m |
| 2026-08-30 00:00:00 | 61.25 | 0.00 | 10.53 | 255 | 13.17 | 287 | 60.3 | 850.0 | 0.0 | 0.2 | 71.96 | 73.76 | 74.48 | 72.86 | 71.60 | 30.9% | 32.0% | 29.2% | 22.6% | 22.9% |
| 2026-08-30 01:00:00 | 62.35 | 0.00 | 9.25 | 269 | 12.55 | 250 | 58.7 | 850.0 | 0.0 | 0.3 | 71.24 | 73.04 | 74.30 | 72.86 | 71.60 | 30.8% | 32.1% | 29.2% | 22.7% | 22.9% |
| 2026-08-30 02:00:00 | 63.16 | 0.00 | 13.01 | 281 | 17.14 | 292 | 59.4 | 850.0 | 0.0 | 0.4 | 70.70 | 72.50 | 74.12 | 72.86 | 71.60 | 30.7% | 32.1% | 29.1% | 22.7% | 22.9% |
| 2026-08-30 03:00:00 | 62.04 | 0.00 | 5.10 | 271 | 15.65 | 280 | 58.2 | 850.0 | 0.0 | 0.2 | 70.16 | 71.96 | 73.76 | 72.86 | 71.60 | 30.7% | 32.0% | 29.1% | 22.7% | 22.8% |
| 2026-08-30 04:00:00 | 60.28 | 0.00 | 9.09 | 195 | 10.19 | 191 | 64.4 | 850.0 | 0.0 | 0.2 | 69.44 | 71.42 | 73.40 | 72.86 | 71.60 | 30.6% | 32.0% | 29.1% | 22.6% | 22.8% |
| 2026-08-30 05:00:00 | 59.59 | 0.00 | 11.66 | 191 | 13.04 | 196 | 67.0 | 850.0 | 0.0 | 0.4 | 69.08 | 71.06 | 73.22 | 72.86 | 71.60 | 30.6% | 32.0% | 29.0% | 22.6% | 22.8% |
| 2026-08-30 06:00:00 | 59.11 | 0.00 | 14.75 | 207 | 17.89 | 211 | 69.1 | 850.0 | 34.2 | 0.4 | 68.72 | 70.70 | 72.86 | 72.86 | 71.60 | 30.6% | 32.0% | 29.0% | 22.7% | 22.8% |
| 2026-08-30 07:00:00 | 64.74 | 0.00 | 8.86 | 209 | 18.14 | 221 | 60.8 | 851.0 | 266.8 | 0.6 | 68.36 | 70.34 | 72.50 | 72.86 | 71.60 | 30.5% | 31.9% | 28.9% | 22.6% | 22.9% |
| 2026-08-30 08:00:00 | 70.92 | 0.00 | 16.41 | 230 | 20.38 | 228 | 46.6 | 850.0 | 467.0 | 0.6 | 68.72 | 69.98 | 72.32 | 72.86 | 71.60 | 30.5% | 31.9% | 28.9% | 22.6% | 22.8% |
| 2026-08-30 09:00:00 | 76.59 | 0.00 | 15.58 | 232 | 24.09 | 234 | 34.9 | 851.0 | 641.5 | 0.6 | 69.62 | 70.16 | 71.96 | 72.86 | 71.60 | 30.5% | 31.9% | 28.8% | 22.7% | 22.7% |
| 2026-08-30 10:00:00 | 79.00 | 0.00 | 18.16 | 272 | 26.57 | 259 | 26.3 | 851.0 | 828.0 | 0.6 | 71.24 | 70.70 | 71.78 | 72.86 | 71.60 | 30.5% | 31.9% | 28.8% | 22.6% | 22.8% |
| 2026-08-30 11:00:00 | 81.66 | 0.00 | 17.84 | 268 | 29.68 | 271 | 23.1 | 850.0 | 973.0 | 0.5 | 73.40 | 71.78 | 71.78 | 72.86 | 71.60 | 30.6% | 31.9% | 28.9% | 22.7% | 22.8% |
| 2026-08-30 12:00:00 | 77.43 | 0.00 | 35.59 | 288 | 43.60 | 283 | 28.0 | 850.0 | 794.8 | 0.4 | 75.20 | 73.04 | 71.96 | 72.68 | 71.60 | 30.7% | 32.0% | 28.9% | 22.7% | 22.8% |
| 2026-08-30 13:00:00 | 67.17 | 0.00 | 27.98 | 343 | 40.24 | 280 | 48.8 | 852.0 | 151.8 | 0.4 | 76.10 | 73.94 | 72.14 | 72.68 | 71.60 | 30.6% | 32.0% | 28.8% | 22.7% | 22.8% |
| 2026-08-30 14:00:00 | 67.93 | 0.00 | 16.60 | 21 | 35.66 | 354 | 50.3 | 852.0 | 460.7 | 0.7 | 76.10 | 74.66 | 72.50 | 72.68 | 71.60 | 30.5% | 32.0% | 29.0% | 22.6% | 22.7% |
| 2026-08-30 15:00:00 | 68.68 | 0.00 | 17.61 | 35 | 25.46 | 35 | 44.7 | 851.0 | 576.4 | 0.7 | 77.00 | 75.02 | 72.86 | 72.68 | 71.60 | 30.5% | 32.1% | 29.0% | 22.7% | 22.7% |
| 2026-08-30 16:00:00 | 72.54 | 0.00 | 10.72 | 60 | 22.73 | 37 | 40.2 | 851.0 | 505.4 | 0.7 | 78.26 | 75.92 | 73.22 | 72.50 | 71.60 | 30.6% | 32.1% | 29.0% | 22.7% | 22.7% |
| 2026-08-30 17:00:00 | 69.67 | 0.00 | 12.69 | 112 | 19.51 | 95 | 41.9 | 851.0 | 59.5 | 0.6 | 78.26 | 76.46 | 73.40 | 72.50 | 71.60 | 30.4% | 32.0% | 28.9% | 22.6% | 22.7% |
| 2026-08-30 18:00:00 | 68.95 | 0.00 | 9.17 | 68 | 16.77 | 60 | 45.1 | 852.0 | 30.5 | 0.4 | 77.18 | 76.46 | 73.76 | 72.50 | 71.42 | 30.5% | 32.0% | 29.0% | 22.7% | 22.7% |
| 2026-08-30 19:00:00 | 63.27 | 0.00 | 11.68 | 58 | 14.16 | 60 | 54.5 | 852.0 | 0.2 | 0.4 | 75.74 | 75.92 | 73.94 | 72.50 | 71.60 | 30.4% | 32.0% | 29.1% | 22.6% | 22.7% |
| 2026-08-30 20:00:00 | 60.10 | 0.00 | 10.44 | 65 | 12.17 | 52 | 61.0 | 853.0 | 0.0 | 0.3 | 74.30 | 75.20 | 73.94 | 72.50 | 71.42 | 30.3% | 31.9% | 29.1% | 22.6% | 22.7% |
| 2026-08-30 21:00:00 | 59.13 | 0.00 | 10.25 | 7 | 12.05 | 100 | 61.3 | 853.0 | 0.0 | 0.4 | 73.04 | 74.48 | 73.94 | 72.50 | 71.42 | 30.2% | 31.9% | 29.1% | 22.6% | 22.8% |
| 2026-08-30 22:00:00 | 56.21 | 0.00 | 8.94 | 1 | 12.42 | 7 | 62.7 | 853.0 | 0.0 | 0.3 | 71.96 | 73.58 | 73.76 | 72.50 | 71.60 | 30.0% | 31.9% | 28.9% | 22.6% | 22.7% |
| 2026-08-30 23:00:00 | 54.14 | 0.00 | 3.37 | 247 | 10.93 | 354 | 68.0 | 853.0 | 0.0 | 0.3 | 70.88 | 72.86 | 73.58 | 72.50 | 71.42 | 30.0% | 31.9% | 29.0% | 22.7% | 22.7% |